sensor_id;sensor_type;location;lat;lon;timestamp;P1;durP1;ratioP1;P2;durP2;ratioP2
34775;SDS011;20989;52.566;13.346;2022-08-19T00:02:21;2.70;;;2.60;;
34775;SDS011;20989;52.566;13.346;2022-08-19T00:05:22;3.25;;;3.05;;
34775;SDS011;20989;52.566;13.346;2022-08-19T00:08:23;2.72;;;2.63;;
34775;SDS011;20989;52.566;13.346;2022-08-19T00:11:24;2.08;;;1.98;;
34775;SDS011;20989;52.566;13.346;2022-08-19T00:14:27;2.58;;;2.47;;
34775;SDS011;20989;52.566;13.346;2022-08-19T00:17:31;2.75;;;2.65;;
34775;SDS011;20989;52.566;13.346;2022-08-19T00:20:32;2.53;;;2.42;;
34775;SDS011;20989;52.566;13.346;2022-08-19T00:23:33;2.30;;;2.20;;
34775;SDS011;20989;52.566;13.346;2022-08-19T00:26:35;2.72;;;2.63;;
34775;SDS011;20989;52.566;13.346;2022-08-19T00:29:37;2.90;;;2.70;;
34775;SDS011;20989;52.566;13.346;2022-08-19T00:32:38;2.17;;;2.08;;
34775;SDS011;20989;52.566;13.346;2022-08-19T00:35:39;2.45;;;2.35;;
34775;SDS011;20989;52.566;13.346;2022-08-19T00:38:40;2.55;;;2.45;;
34775;SDS011;20989;52.566;13.346;2022-08-19T00:41:44;3.08;;;2.88;;
34775;SDS011;20989;52.566;13.346;2022-08-19T00:44:48;2.05;;;1.95;;
34775;SDS011;20989;52.566;13.346;2022-08-19T00:47:50;2.55;;;2.45;;
34775;SDS011;20989;52.566;13.346;2022-08-19T00:50:52;2.30;;;2.15;;
34775;SDS011;20989;52.566;13.346;2022-08-19T00:53:55;2.42;;;2.25;;
34775;SDS011;20989;52.566;13.346;2022-08-19T00:56:58;2.30;;;2.20;;
34775;SDS011;20989;52.566;13.346;2022-08-19T01:00:03;2.42;;;2.33;;
34775;SDS011;20989;52.566;13.346;2022-08-19T01:03:10;2.38;;;2.20;;
34775;SDS011;20989;52.566;13.346;2022-08-19T01:06:13;2.60;;;2.50;;
34775;SDS011;20989;52.566;13.346;2022-08-19T01:09:14;2.35;;;2.25;;
34775;SDS011;20989;52.566;13.346;2022-08-19T01:12:18;2.38;;;2.28;;
34775;SDS011;20989;52.566;13.346;2022-08-19T01:15:21;2.58;;;2.47;;
34775;SDS011;20989;52.566;13.346;2022-08-19T01:18:25;1.88;;;1.77;;
34775;SDS011;20989;52.566;13.346;2022-08-19T01:21:47;2.17;;;2.08;;
34775;SDS011;20989;52.566;13.346;2022-08-19T01:25:10;2.00;;;1.90;;
34775;SDS011;20989;52.566;13.346;2022-08-19T01:28:17;2.45;;;2.35;;
34775;SDS011;20989;52.566;13.346;2022-08-19T01:31:26;2.17;;;2.08;;
34775;SDS011;20989;52.566;13.346;2022-08-19T01:34:30;2.53;;;2.42;;
34775;SDS011;20989;52.566;13.346;2022-08-19T01:37:44;2.38;;;2.28;;
34775;SDS011;20989;52.566;13.346;2022-08-19T01:40:46;2.30;;;2.20;;
34775;SDS011;20989;52.566;13.346;2022-08-19T01:43:47;1.95;;;1.85;;
34775;SDS011;20989;52.566;13.346;2022-08-19T01:46:49;2.35;;;2.25;;
34775;SDS011;20989;52.566;13.346;2022-08-19T01:49:50;2.25;;;2.05;;
34775;SDS011;20989;52.566;13.346;2022-08-19T01:52:51;1.98;;;1.88;;
34775;SDS011;20989;52.566;13.346;2022-08-19T01:55:52;2.28;;;2.17;;
34775;SDS011;20989;52.566;13.346;2022-08-19T01:58:58;1.95;;;1.85;;
34775;SDS011;20989;52.566;13.346;2022-08-19T02:02:03;2.30;;;2.20;;
34775;SDS011;20989;52.566;13.346;2022-08-19T02:05:07;2.10;;;2.00;;
34775;SDS011;20989;52.566;13.346;2022-08-19T02:08:08;2.03;;;1.92;;
34775;SDS011;20989;52.566;13.346;2022-08-19T02:11:17;2.20;;;2.10;;
34775;SDS011;20989;52.566;13.346;2022-08-19T02:14:26;2.28;;;2.08;;
34775;SDS011;20989;52.566;13.346;2022-08-19T02:17:27;2.22;;;2.13;;
34775;SDS011;20989;52.566;13.346;2022-08-19T02:20:29;2.30;;;2.20;;
34775;SDS011;20989;52.566;13.346;2022-08-19T02:23:29;2.17;;;2.08;;
34775;SDS011;20989;52.566;13.346;2022-08-19T02:26:32;2.00;;;1.88;;
34775;SDS011;20989;52.566;13.346;2022-08-19T02:29:32;1.92;;;1.83;;
34775;SDS011;20989;52.566;13.346;2022-08-19T02:32:33;2.25;;;2.15;;
34775;SDS011;20989;52.566;13.346;2022-08-19T02:35:34;2.00;;;1.90;;
34775;SDS011;20989;52.566;13.346;2022-08-19T02:38:38;2.20;;;2.10;;
34775;SDS011;20989;52.566;13.346;2022-08-19T02:41:40;2.13;;;1.95;;
34775;SDS011;20989;52.566;13.346;2022-08-19T02:44:41;2.08;;;1.98;;
34775;SDS011;20989;52.566;13.346;2022-08-19T02:47:42;2.33;;;2.13;;
34775;SDS011;20989;52.566;13.346;2022-08-19T02:50:43;2.47;;;2.38;;
34775;SDS011;20989;52.566;13.346;2022-08-19T02:53:44;2.40;;;2.30;;
34775;SDS011;20989;52.566;13.346;2022-08-19T02:56:45;2.40;;;2.30;;
34775;SDS011;20989;52.566;13.346;2022-08-19T02:59:46;2.00;;;1.90;;
34775;SDS011;20989;52.566;13.346;2022-08-19T03:02:47;2.28;;;2.17;;
34775;SDS011;20989;52.566;13.346;2022-08-19T03:05:48;2.20;;;2.10;;
34775;SDS011;20989;52.566;13.346;2022-08-19T03:08:49;2.47;;;2.28;;
34775;SDS011;20989;52.566;13.346;2022-08-19T03:11:50;2.20;;;2.10;;
34775;SDS011;20989;52.566;13.346;2022-08-19T03:14:51;2.55;;;2.45;;
34775;SDS011;20989;52.566;13.346;2022-08-19T03:17:52;2.75;;;2.30;;
34775;SDS011;20989;52.566;13.346;2022-08-19T03:20:53;2.50;;;2.40;;
34775;SDS011;20989;52.566;13.346;2022-08-19T03:23:56;2.28;;;2.17;;
34775;SDS011;20989;52.566;13.346;2022-08-19T03:26:58;2.35;;;2.25;;
34775;SDS011;20989;52.566;13.346;2022-08-19T03:29:59;2.20;;;2.10;;
34775;SDS011;20989;52.566;13.346;2022-08-19T03:33:00;2.15;;;2.05;;
34775;SDS011;20989;52.566;13.346;2022-08-19T03:36:02;2.50;;;2.40;;
34775;SDS011;20989;52.566;13.346;2022-08-19T03:39:05;2.35;;;2.25;;
34775;SDS011;20989;52.566;13.346;2022-08-19T03:42:08;2.30;;;2.20;;
34775;SDS011;20989;52.566;13.346;2022-08-19T03:45:10;2.15;;;2.05;;
34775;SDS011;20989;52.566;13.346;2022-08-19T03:48:11;2.10;;;2.00;;
34775;SDS011;20989;52.566;13.346;2022-08-19T03:51:18;2.05;;;1.95;;
34775;SDS011;20989;52.566;13.346;2022-08-19T03:54:28;2.30;;;2.20;;
34775;SDS011;20989;52.566;13.346;2022-08-19T03:57:29;2.30;;;2.20;;
34775;SDS011;20989;52.566;13.346;2022-08-19T04:00:30;2.28;;;2.08;;
34775;SDS011;20989;52.566;13.346;2022-08-19T04:03:30;2.38;;;2.22;;
34775;SDS011;20989;52.566;13.346;2022-08-19T04:06:32;2.72;;;2.63;;
34775;SDS011;20989;52.566;13.346;2022-08-19T04:09:35;2.45;;;2.30;;
34775;SDS011;20989;52.566;13.346;2022-08-19T04:12:38;2.38;;;2.28;;
34775;SDS011;20989;52.566;13.346;2022-08-19T04:15:43;2.60;;;2.40;;
34775;SDS011;20989;52.566;13.346;2022-08-19T04:18:45;2.47;;;2.38;;
34775;SDS011;20989;52.566;13.346;2022-08-19T04:21:47;2.40;;;2.30;;
34775;SDS011;20989;52.566;13.346;2022-08-19T04:24:49;2.40;;;2.30;;
34775;SDS011;20989;52.566;13.346;2022-08-19T04:27:50;2.63;;;2.50;;
34775;SDS011;20989;52.566;13.346;2022-08-19T04:30:51;2.50;;;2.40;;
34775;SDS011;20989;52.566;13.346;2022-08-19T04:33:54;2.30;;;2.20;;
34775;SDS011;20989;52.566;13.346;2022-08-19T04:36:57;2.50;;;2.30;;
34775;SDS011;20989;52.566;13.346;2022-08-19T04:39:58;2.30;;;2.20;;
34775;SDS011;20989;52.566;13.346;2022-08-19T04:43:18;1.83;;;1.73;;
34775;SDS011;20989;52.566;13.346;2022-08-19T04:46:19;2.40;;;2.30;;
34775;SDS011;20989;52.566;13.346;2022-08-19T04:49:20;2.35;;;2.25;;
34775;SDS011;20989;52.566;13.346;2022-08-19T04:52:22;2.20;;;2.10;;
34775;SDS011;20989;52.566;13.346;2022-08-19T04:55:23;2.30;;;2.20;;
34775;SDS011;20989;52.566;13.346;2022-08-19T04:58:27;2.00;;;1.90;;
34775;SDS011;20989;52.566;13.346;2022-08-19T05:01:28;2.20;;;2.10;;
34775;SDS011;20989;52.566;13.346;2022-08-19T05:04:30;2.10;;;2.00;;
34775;SDS011;20989;52.566;13.346;2022-08-19T05:07:32;1.67;;;1.58;;
34775;SDS011;20989;52.566;13.346;2022-08-19T05:10:37;2.08;;;1.98;;
34775;SDS011;20989;52.566;13.346;2022-08-19T05:13:38;1.88;;;1.77;;
34775;SDS011;20989;52.566;13.346;2022-08-19T05:16:40;2.03;;;1.92;;
34775;SDS011;20989;52.566;13.346;2022-08-19T05:19:41;2.60;;;2.50;;
34775;SDS011;20989;52.566;13.346;2022-08-19T05:23:00;2.40;;;2.30;;
34775;SDS011;20989;52.566;13.346;2022-08-19T05:26:01;1.95;;;1.85;;
34775;SDS011;20989;52.566;13.346;2022-08-19T05:29:03;2.85;;;2.75;;
34775;SDS011;20989;52.566;13.346;2022-08-19T05:32:05;2.40;;;2.20;;
34775;SDS011;20989;52.566;13.346;2022-08-19T05:35:10;2.70;;;2.30;;
34775;SDS011;20989;52.566;13.346;2022-08-19T05:38:11;2.30;;;2.20;;
34775;SDS011;20989;52.566;13.346;2022-08-19T05:41:13;4.72;;;2.60;;
34775;SDS011;20989;52.566;13.346;2022-08-19T05:44:15;2.38;;;2.28;;
34775;SDS011;20989;52.566;13.346;2022-08-19T05:47:17;2.17;;;2.03;;
34775;SDS011;20989;52.566;13.346;2022-08-19T05:50:19;2.50;;;2.40;;
34775;SDS011;20989;52.566;13.346;2022-08-19T05:53:20;3.25;;;2.15;;
34775;SDS011;20989;52.566;13.346;2022-08-19T05:56:21;4.20;;;3.85;;
34775;SDS011;20989;52.566;13.346;2022-08-19T05:59:23;5.82;;;4.50;;
34775;SDS011;20989;52.566;13.346;2022-08-19T06:02:27;18.30;;;6.53;;
34775;SDS011;20989;52.566;13.346;2022-08-19T06:05:30;9.57;;;6.75;;
34775;SDS011;20989;52.566;13.346;2022-08-19T06:08:31;7.05;;;6.32;;
34775;SDS011;20989;52.566;13.346;2022-08-19T06:11:51;6.57;;;5.97;;
34775;SDS011;20989;52.566;13.346;2022-08-19T06:14:54;5.97;;;5.47;;
34775;SDS011;20989;52.566;13.346;2022-08-19T06:17:55;7.65;;;5.82;;
34775;SDS011;20989;52.566;13.346;2022-08-19T06:20:56;5.90;;;5.35;;
34775;SDS011;20989;52.566;13.346;2022-08-19T06:23:57;10.50;;;5.00;;
34775;SDS011;20989;52.566;13.346;2022-08-19T06:26:59;7.43;;;6.07;;
34775;SDS011;20989;52.566;13.346;2022-08-19T06:30:00;11.88;;;7.15;;
34775;SDS011;20989;52.566;13.346;2022-08-19T06:33:02;11.40;;;7.00;;
34775;SDS011;20989;52.566;13.346;2022-08-19T06:36:03;15.02;;;6.78;;
34775;SDS011;20989;52.566;13.346;2022-08-19T06:39:07;7.60;;;6.13;;
34775;SDS011;20989;52.566;13.346;2022-08-19T06:42:10;6.70;;;6.00;;
34775;SDS011;20989;52.566;13.346;2022-08-19T06:45:13;6.63;;;6.03;;
34775;SDS011;20989;52.566;13.346;2022-08-19T06:48:14;6.75;;;5.68;;
34775;SDS011;20989;52.566;13.346;2022-08-19T06:51:16;6.22;;;5.68;;
34775;SDS011;20989;52.566;13.346;2022-08-19T06:54:20;6.25;;;5.65;;
34775;SDS011;20989;52.566;13.346;2022-08-19T06:57:21;8.32;;;7.55;;
34775;SDS011;20989;52.566;13.346;2022-08-19T07:00:23;16.45;;;10.40;;
34775;SDS011;20989;52.566;13.346;2022-08-19T07:03:24;14.68;;;12.18;;
34775;SDS011;20989;52.566;13.346;2022-08-19T07:06:24;15.32;;;11.43;;
34775;SDS011;20989;52.566;13.346;2022-08-19T07:09:25;23.42;;;11.60;;
34775;SDS011;20989;52.566;13.346;2022-08-19T07:12:27;14.18;;;11.23;;
34775;SDS011;20989;52.566;13.346;2022-08-19T07:15:31;13.85;;;12.20;;
34775;SDS011;20989;52.566;13.346;2022-08-19T07:18:32;18.52;;;15.70;;
34775;SDS011;20989;52.566;13.346;2022-08-19T07:21:34;16.33;;;13.73;;
34775;SDS011;20989;52.566;13.346;2022-08-19T07:24:36;13.10;;;11.90;;
34775;SDS011;20989;52.566;13.346;2022-08-19T07:27:38;19.35;;;12.35;;
34775;SDS011;20989;52.566;13.346;2022-08-19T07:30:38;19.10;;;13.75;;
34775;SDS011;20989;52.566;13.346;2022-08-19T07:33:41;17.67;;;14.77;;
34775;SDS011;20989;52.566;13.346;2022-08-19T07:36:43;14.85;;;13.40;;
34775;SDS011;20989;52.566;13.346;2022-08-19T07:39:44;16.52;;;12.48;;
34775;SDS011;20989;52.566;13.346;2022-08-19T07:42:45;13.60;;;12.20;;
34775;SDS011;20989;52.566;13.346;2022-08-19T07:45:47;14.40;;;13.02;;
34775;SDS011;20989;52.566;13.346;2022-08-19T07:48:48;17.35;;;13.48;;
34775;SDS011;20989;52.566;13.346;2022-08-19T07:51:55;12.88;;;11.68;;
34775;SDS011;20989;52.566;13.346;2022-08-19T07:55:02;13.95;;;12.55;;
34775;SDS011;20989;52.566;13.346;2022-08-19T07:58:04;13.65;;;12.48;;
34775;SDS011;20989;52.566;13.346;2022-08-19T08:01:05;21.55;;;19.33;;
34775;SDS011;20989;52.566;13.346;2022-08-19T08:04:07;18.75;;;16.85;;
34775;SDS011;20989;52.566;13.346;2022-08-19T08:07:27;18.90;;;14.95;;
34775;SDS011;20989;52.566;13.346;2022-08-19T08:10:46;15.40;;;13.55;;
34775;SDS011;20989;52.566;13.346;2022-08-19T08:13:47;14.50;;;13.05;;
34775;SDS011;20989;52.566;13.346;2022-08-19T08:16:49;13.65;;;12.30;;
34775;SDS011;20989;52.566;13.346;2022-08-19T08:19:51;14.90;;;13.50;;
34775;SDS011;20989;52.566;13.346;2022-08-19T08:22:52;14.10;;;12.82;;
34775;SDS011;20989;52.566;13.346;2022-08-19T08:26:12;14.38;;;12.50;;
34775;SDS011;20989;52.566;13.346;2022-08-19T08:29:14;13.40;;;12.07;;
34775;SDS011;20989;52.566;13.346;2022-08-19T08:32:15;15.57;;;13.32;;
34775;SDS011;20989;52.566;13.346;2022-08-19T08:35:17;16.80;;;14.50;;
34775;SDS011;20989;52.566;13.346;2022-08-19T08:38:20;16.95;;;15.07;;
34775;SDS011;20989;52.566;13.346;2022-08-19T08:44:46;16.02;;;14.55;;
34775;SDS011;20989;52.566;13.346;2022-08-19T08:51:27;16.73;;;14.50;;
34775;SDS011;20989;52.566;13.346;2022-08-19T08:54:35;17.00;;;15.43;;
34775;SDS011;20989;52.566;13.346;2022-08-19T09:00:47;14.48;;;12.88;;
34775;SDS011;20989;52.566;13.346;2022-08-19T09:03:49;18.83;;;14.00;;
34775;SDS011;20989;52.566;13.346;2022-08-19T09:06:53;21.80;;;13.95;;
34775;SDS011;20989;52.566;13.346;2022-08-19T09:14:02;19.55;;;16.58;;
34775;SDS011;20989;52.566;13.346;2022-08-19T09:17:14;21.15;;;18.95;;
34775;SDS011;20989;52.566;13.346;2022-08-19T09:20:18;17.20;;;15.50;;
34775;SDS011;20989;52.566;13.346;2022-08-19T09:23:21;17.90;;;15.07;;
34775;SDS011;20989;52.566;13.346;2022-08-19T09:26:24;20.85;;;15.77;;
34775;SDS011;20989;52.566;13.346;2022-08-19T09:29:25;17.48;;;15.63;;
34775;SDS011;20989;52.566;13.346;2022-08-19T09:32:26;18.30;;;16.42;;
34775;SDS011;20989;52.566;13.346;2022-08-19T09:35:28;21.73;;;17.13;;
34775;SDS011;20989;52.566;13.346;2022-08-19T09:38:29;22.13;;;17.48;;
34775;SDS011;20989;52.566;13.346;2022-08-19T09:41:30;15.73;;;14.13;;
34775;SDS011;20989;52.566;13.346;2022-08-19T09:44:31;17.45;;;15.35;;
34775;SDS011;20989;52.566;13.346;2022-08-19T09:47:33;15.70;;;14.10;;
34775;SDS011;20989;52.566;13.346;2022-08-19T09:50:37;19.98;;;15.18;;
34775;SDS011;20989;52.566;13.346;2022-08-19T09:53:38;17.80;;;13.43;;
34775;SDS011;20989;52.566;13.346;2022-08-19T09:56:39;17.88;;;13.40;;
34775;SDS011;20989;52.566;13.346;2022-08-19T09:59:40;25.50;;;11.88;;
34775;SDS011;20989;52.566;13.346;2022-08-19T10:02:42;13.93;;;10.23;;
34775;SDS011;20989;52.566;13.346;2022-08-19T10:05:42;12.68;;;11.32;;
34775;SDS011;20989;52.566;13.346;2022-08-19T10:08:49;12.45;;;10.43;;
34775;SDS011;20989;52.566;13.346;2022-08-19T10:11:51;11.02;;;9.73;;
34775;SDS011;20989;52.566;13.346;2022-08-19T10:14:52;16.55;;;9.82;;
34775;SDS011;20989;52.566;13.346;2022-08-19T10:17:54;10.18;;;9.25;;
34775;SDS011;20989;52.566;13.346;2022-08-19T10:21:02;10.52;;;9.60;;
34775;SDS011;20989;52.566;13.346;2022-08-19T10:24:09;9.52;;;8.68;;
34775;SDS011;20989;52.566;13.346;2022-08-19T10:27:09;13.07;;;9.85;;
34775;SDS011;20989;52.566;13.346;2022-08-19T10:30:10;9.80;;;8.90;;
34775;SDS011;20989;52.566;13.346;2022-08-19T10:33:11;10.07;;;9.07;;
34775;SDS011;20989;52.566;13.346;2022-08-19T10:36:15;9.48;;;8.27;;
34775;SDS011;20989;52.566;13.346;2022-08-19T10:39:20;8.95;;;8.18;;
34775;SDS011;20989;52.566;13.346;2022-08-19T10:42:21;10.07;;;9.07;;
34775;SDS011;20989;52.566;13.346;2022-08-19T10:45:22;8.57;;;7.80;;
34775;SDS011;20989;52.566;13.346;2022-08-19T10:48:26;9.38;;;8.63;;
34775;SDS011;20989;52.566;13.346;2022-08-19T10:51:27;9.20;;;8.25;;
34775;SDS011;20989;52.566;13.346;2022-08-19T10:54:46;9.43;;;8.63;;
34775;SDS011;20989;52.566;13.346;2022-08-19T10:58:10;8.90;;;8.18;;
34775;SDS011;20989;52.566;13.346;2022-08-19T11:01:12;9.10;;;8.30;;
34775;SDS011;20989;52.566;13.346;2022-08-19T11:04:13;8.85;;;8.07;;
34775;SDS011;20989;52.566;13.346;2022-08-19T11:07:17;8.77;;;7.97;;
34775;SDS011;20989;52.566;13.346;2022-08-19T11:10:18;9.23;;;8.30;;
34775;SDS011;20989;52.566;13.346;2022-08-19T11:13:19;8.25;;;7.45;;
34775;SDS011;20989;52.566;13.346;2022-08-19T11:16:24;9.40;;;8.55;;
34775;SDS011;20989;52.566;13.346;2022-08-19T11:19:26;8.40;;;7.70;;
34775;SDS011;20989;52.566;13.346;2022-08-19T11:22:27;8.65;;;7.85;;
34775;SDS011;20989;52.566;13.346;2022-08-19T11:25:28;8.30;;;7.60;;
34775;SDS011;20989;52.566;13.346;2022-08-19T11:28:28;8.77;;;7.88;;
34775;SDS011;20989;52.566;13.346;2022-08-19T11:31:30;7.13;;;6.63;;
34775;SDS011;20989;52.566;13.346;2022-08-19T11:34:32;8.13;;;7.53;;
34775;SDS011;20989;52.566;13.346;2022-08-19T11:37:33;8.00;;;7.28;;
34775;SDS011;20989;52.566;13.346;2022-08-19T11:40:37;7.50;;;7.00;;
34775;SDS011;20989;52.566;13.346;2022-08-19T11:43:38;7.68;;;7.05;;
34775;SDS011;20989;52.566;13.346;2022-08-19T11:46:40;8.40;;;7.60;;
34775;SDS011;20989;52.566;13.346;2022-08-19T11:49:45;7.28;;;6.68;;
34775;SDS011;20989;52.566;13.346;2022-08-19T11:52:47;8.07;;;7.38;;
34775;SDS011;20989;52.566;13.346;2022-08-19T11:55:53;7.78;;;7.18;;
34775;SDS011;20989;52.566;13.346;2022-08-19T11:58:55;7.93;;;7.22;;
34775;SDS011;20989;52.566;13.346;2022-08-19T12:01:56;6.78;;;6.32;;
34775;SDS011;20989;52.566;13.346;2022-08-19T12:04:57;6.68;;;6.20;;
34775;SDS011;20989;52.566;13.346;2022-08-19T12:07:58;6.78;;;6.28;;
34775;SDS011;20989;52.566;13.346;2022-08-19T12:10:59;7.40;;;6.90;;
34775;SDS011;20989;52.566;13.346;2022-08-19T12:14:01;7.65;;;6.95;;
34775;SDS011;20989;52.566;13.346;2022-08-19T12:17:02;6.70;;;6.20;;
34775;SDS011;20989;52.566;13.346;2022-08-19T12:20:06;7.80;;;7.10;;
34775;SDS011;20989;52.566;13.346;2022-08-19T12:23:09;7.25;;;6.65;;
34775;SDS011;20989;52.566;13.346;2022-08-19T12:26:10;8.88;;;6.40;;
34775;SDS011;20989;52.566;13.346;2022-08-19T12:29:11;8.98;;;8.05;;
34775;SDS011;20989;52.566;13.346;2022-08-19T12:32:12;10.43;;;8.73;;
34775;SDS011;20989;52.566;13.346;2022-08-19T12:35:13;9.07;;;8.18;;
34775;SDS011;20989;52.566;13.346;2022-08-19T12:38:14;11.07;;;9.50;;
34775;SDS011;20989;52.566;13.346;2022-08-19T12:41:15;14.10;;;9.73;;
34775;SDS011;20989;52.566;13.346;2022-08-19T12:44:18;10.65;;;9.68;;
34775;SDS011;20989;52.566;13.346;2022-08-19T12:47:19;11.63;;;10.38;;
34775;SDS011;20989;52.566;13.346;2022-08-19T12:50:21;10.02;;;9.02;;
34775;SDS011;20989;52.566;13.346;2022-08-19T12:53:22;11.05;;;10.13;;
34775;SDS011;20989;52.566;13.346;2022-08-19T12:56:23;13.13;;;10.55;;
34775;SDS011;20989;52.566;13.346;2022-08-19T12:59:24;11.82;;;10.77;;
34775;SDS011;20989;52.566;13.346;2022-08-19T13:02:26;14.77;;;13.32;;
34775;SDS011;20989;52.566;13.346;2022-08-19T13:05:28;14.27;;;12.88;;
34775;SDS011;20989;52.566;13.346;2022-08-19T13:08:30;13.57;;;12.30;;
34775;SDS011;20989;52.566;13.346;2022-08-19T13:11:31;16.88;;;14.77;;
34775;SDS011;20989;52.566;13.346;2022-08-19T13:14:34;12.50;;;11.30;;
34775;SDS011;20989;52.566;13.346;2022-08-19T13:17:35;13.32;;;11.57;;
34775;SDS011;20989;52.566;13.346;2022-08-19T13:20:36;11.23;;;9.73;;
34775;SDS011;20989;52.566;13.346;2022-08-19T13:23:38;12.10;;;10.90;;
34775;SDS011;20989;52.566;13.346;2022-08-19T13:26:39;10.73;;;9.25;;
34775;SDS011;20989;52.566;13.346;2022-08-19T13:29:40;14.15;;;10.43;;
34775;SDS011;20989;52.566;13.346;2022-08-19T13:33:00;12.45;;;11.15;;
34775;SDS011;20989;52.566;13.346;2022-08-19T13:36:16;20.83;;;13.38;;
34775;SDS011;20989;52.566;13.346;2022-08-19T13:39:16;12.65;;;11.27;;
34775;SDS011;20989;52.566;13.346;2022-08-19T13:42:17;13.75;;;12.02;;
34775;SDS011;20989;52.566;13.346;2022-08-19T13:45:19;10.93;;;10.00;;
34775;SDS011;20989;52.566;13.346;2022-08-19T13:48:22;14.73;;;11.18;;
34775;SDS011;20989;52.566;13.346;2022-08-19T13:51:26;12.60;;;11.30;;
34775;SDS011;20989;52.566;13.346;2022-08-19T13:54:27;14.48;;;11.85;;
34775;SDS011;20989;52.566;13.346;2022-08-19T13:57:27;10.60;;;9.52;;
34775;SDS011;20989;52.566;13.346;2022-08-19T14:00:29;12.60;;;11.40;;
34775;SDS011;20989;52.566;13.346;2022-08-19T14:03:35;11.85;;;10.68;;
34775;SDS011;20989;52.566;13.346;2022-08-19T14:06:36;12.63;;;11.43;;
34775;SDS011;20989;52.566;13.346;2022-08-19T14:09:37;14.45;;;13.05;;
34775;SDS011;20989;52.566;13.346;2022-08-19T14:12:38;20.27;;;12.65;;
34775;SDS011;20989;52.566;13.346;2022-08-19T14:15:39;13.00;;;11.45;;
34775;SDS011;20989;52.566;13.346;2022-08-19T14:18:41;110.18;;;97.65;;
34775;SDS011;20989;52.566;13.346;2022-08-19T14:21:43;42.22;;;37.35;;
34775;SDS011;20989;52.566;13.346;2022-08-19T14:24:43;17.02;;;15.23;;
34775;SDS011;20989;52.566;13.346;2022-08-19T14:27:45;13.07;;;11.75;;
34775;SDS011;20989;52.566;13.346;2022-08-19T14:30:46;11.93;;;10.82;;
34775;SDS011;20989;52.566;13.346;2022-08-19T14:33:47;12.32;;;11.13;;
34775;SDS011;20989;52.566;13.346;2022-08-19T14:36:48;11.50;;;10.02;;
34775;SDS011;20989;52.566;13.346;2022-08-19T14:39:48;10.70;;;9.60;;
34775;SDS011;20989;52.566;13.346;2022-08-19T14:42:49;15.30;;;10.05;;
34775;SDS011;20989;52.566;13.346;2022-08-19T14:45:50;11.15;;;9.40;;
34775;SDS011;20989;52.566;13.346;2022-08-19T14:48:51;11.05;;;9.68;;
34775;SDS011;20989;52.566;13.346;2022-08-19T14:51:52;11.95;;;9.35;;
34775;SDS011;20989;52.566;13.346;2022-08-19T14:54:53;9.95;;;9.15;;
34775;SDS011;20989;52.566;13.346;2022-08-19T14:57:54;18.10;;;16.35;;
34775;SDS011;20989;52.566;13.346;2022-08-19T15:00:56;14.90;;;12.80;;
34775;SDS011;20989;52.566;13.346;2022-08-19T15:03:59;12.25;;;10.88;;
34775;SDS011;20989;52.566;13.346;2022-08-19T15:06:59;10.40;;;9.43;;
34775;SDS011;20989;52.566;13.346;2022-08-19T15:10:00;10.63;;;9.68;;
34775;SDS011;20989;52.566;13.346;2022-08-19T15:13:01;11.65;;;10.45;;
34775;SDS011;20989;52.566;13.346;2022-08-19T15:16:02;15.85;;;12.57;;
34775;SDS011;20989;52.566;13.346;2022-08-19T15:19:03;11.80;;;10.68;;
34775;SDS011;20989;52.566;13.346;2022-08-19T15:22:03;12.70;;;9.88;;
34775;SDS011;20989;52.566;13.346;2022-08-19T15:25:05;12.95;;;8.77;;
34775;SDS011;20989;52.566;13.346;2022-08-19T15:28:07;12.73;;;9.82;;
34775;SDS011;20989;52.566;13.346;2022-08-19T15:31:11;16.40;;;9.45;;
34775;SDS011;20989;52.566;13.346;2022-08-19T15:34:12;15.48;;;10.38;;
34775;SDS011;20989;52.566;13.346;2022-08-19T15:37:13;19.35;;;9.95;;
34775;SDS011;20989;52.566;13.346;2022-08-19T15:40:16;12.90;;;11.75;;
34775;SDS011;20989;52.566;13.346;2022-08-19T15:43:18;12.55;;;9.65;;
34775;SDS011;20989;52.566;13.346;2022-08-19T15:46:23;11.85;;;9.00;;
34775;SDS011;20989;52.566;13.346;2022-08-19T15:49:27;17.88;;;14.98;;
34775;SDS011;20989;52.566;13.346;2022-08-19T15:52:27;14.60;;;11.80;;
34775;SDS011;20989;52.566;13.346;2022-08-19T15:55:29;11.60;;;10.30;;
34775;SDS011;20989;52.566;13.346;2022-08-19T15:58:32;10.55;;;9.40;;
34775;SDS011;20989;52.566;13.346;2022-08-19T16:02:11;11.23;;;10.15;;
34775;SDS011;20989;52.566;13.346;2022-08-19T16:05:31;20.92;;;16.95;;
34775;SDS011;20989;52.566;13.346;2022-08-19T16:08:54;13.15;;;11.85;;
34775;SDS011;20989;52.566;13.346;2022-08-19T16:11:58;12.40;;;10.98;;
34775;SDS011;20989;52.566;13.346;2022-08-19T16:15:00;11.18;;;10.18;;
34775;SDS011;20989;52.566;13.346;2022-08-19T16:18:01;13.00;;;10.93;;
34775;SDS011;20989;52.566;13.346;2022-08-19T16:21:04;14.50;;;12.05;;
34775;SDS011;20989;52.566;13.346;2022-08-19T16:24:10;12.68;;;11.35;;
34775;SDS011;20989;52.566;13.346;2022-08-19T16:27:46;18.25;;;12.60;;
34775;SDS011;20989;52.566;13.346;2022-08-19T16:30:58;10.98;;;9.75;;
34775;SDS011;20989;52.566;13.346;2022-08-19T16:33:58;12.98;;;11.63;;
34775;SDS011;20989;52.566;13.346;2022-08-19T16:36:59;15.30;;;11.52;;
34775;SDS011;20989;52.566;13.346;2022-08-19T16:40:00;11.75;;;10.65;;
34775;SDS011;20989;52.566;13.346;2022-08-19T16:43:01;11.65;;;10.35;;
34775;SDS011;20989;52.566;13.346;2022-08-19T16:46:02;10.52;;;9.50;;
34775;SDS011;20989;52.566;13.346;2022-08-19T16:49:03;11.63;;;10.63;;
34775;SDS011;20989;52.566;13.346;2022-08-19T16:52:04;12.00;;;9.65;;
34775;SDS011;20989;52.566;13.346;2022-08-19T16:55:09;10.85;;;9.85;;
34775;SDS011;20989;52.566;13.346;2022-08-19T16:58:10;9.77;;;8.88;;
34775;SDS011;20989;52.566;13.346;2022-08-19T17:01:11;9.38;;;8.68;;
34775;SDS011;20989;52.566;13.346;2022-08-19T17:04:12;10.00;;;9.10;;
34775;SDS011;20989;52.566;13.346;2022-08-19T17:07:13;9.43;;;8.52;;
34775;SDS011;20989;52.566;13.346;2022-08-19T17:10:14;10.38;;;9.38;;
34775;SDS011;20989;52.566;13.346;2022-08-19T17:13:15;8.52;;;7.70;;
34775;SDS011;20989;52.566;13.346;2022-08-19T17:16:17;13.70;;;12.57;;
34775;SDS011;20989;52.566;13.346;2022-08-19T17:22:24;8.45;;;7.63;;
34775;SDS011;20989;52.566;13.346;2022-08-19T17:25:26;8.00;;;7.38;;
34775;SDS011;20989;52.566;13.346;2022-08-19T17:28:30;7.68;;;6.97;;
34775;SDS011;20989;52.566;13.346;2022-08-19T17:31:30;7.80;;;7.10;;
34775;SDS011;20989;52.566;13.346;2022-08-19T17:34:31;8.13;;;6.65;;
34775;SDS011;20989;52.566;13.346;2022-08-19T17:37:32;7.00;;;6.50;;
34775;SDS011;20989;52.566;13.346;2022-08-19T17:40:35;7.10;;;6.40;;
34775;SDS011;20989;52.566;13.346;2022-08-19T17:43:37;6.63;;;6.13;;
34775;SDS011;20989;52.566;13.346;2022-08-19T17:46:38;6.05;;;5.45;;
34775;SDS011;20989;52.566;13.346;2022-08-19T17:49:39;5.40;;;4.95;;
34775;SDS011;20989;52.566;13.346;2022-08-19T17:52:40;5.95;;;4.72;;
34775;SDS011;20989;52.566;13.346;2022-08-19T17:55:42;4.57;;;4.18;;
34775;SDS011;20989;52.566;13.346;2022-08-19T17:58:42;4.43;;;4.13;;
34775;SDS011;20989;52.566;13.346;2022-08-19T18:01:43;13.95;;;5.07;;
34775;SDS011;20989;52.566;13.346;2022-08-19T18:04:45;22.38;;;5.30;;
34775;SDS011;20989;52.566;13.346;2022-08-19T18:07:48;23.88;;;4.90;;
34775;SDS011;20989;52.566;13.346;2022-08-19T18:10:51;27.85;;;5.05;;